Time;durP1;ratioP1;P1;durP2;ratioP2;P2;SDS_P1;SDS_P2;PMS_P1;PMS_P2;Temp;Humidity;BMP_temperature;BMP_pressure;BME280_temperature;BME280_humidity;BME280_pressure;Samples;Min_cycle;Max_cycle;Signal;HPM_P1;HPM_P2
2023/07/16 00:01:43;;;;;;;5.30;2.83;;;17.70;99.90;;;;;;2613677;54;20598;-68
2023/07/16 00:07:31;;;;;;;6.27;3.03;;;17.90;99.90;;;;;;2613761;54;20234;-69
2023/07/16 00:13:18;;;;;;;4.90;2.90;;;17.60;99.90;;;;;;2614542;54;20152;-69
2023/07/16 00:19:06;;;;;;;4.17;2.80;;;17.60;99.90;;;;;;2614278;54;20230;-68
2023/07/16 00:24:54;;;;;;;5.50;2.77;;;17.50;99.90;;;;;;2614239;54;20239;-69
2023/07/16 00:30:42;;;;;;;4.93;2.77;;;17.40;99.90;;;;;;2614752;54;20150;-69
2023/07/16 00:36:29;;;;;;;5.00;3.47;;;17.50;99.90;;;;;;2614934;54;20217;-69
2023/07/16 00:42:17;;;;;;;8.50;3.80;;;17.40;99.90;;;;;;2613354;54;20135;-69
2023/07/16 00:48:06;;;;;;;5.70;2.50;;;17.80;99.90;;;;;;2614713;54;20165;-68
2023/07/16 00:53:54;;;;;;;4.70;3.20;;;17.50;99.90;;;;;;2614157;54;20408;-69
2023/07/16 00:59:43;;;;;;;6.40;3.60;;;17.50;99.90;;;;;;2614014;46;20402;-70
2023/07/16 01:15:31;;;;;;;12.73;4.57;;;16.60;99.90;;;;;;2614649;54;20383;-70
2023/07/16 01:21:21;;;;;;;6.27;4.83;;;16.60;99.90;;;;;;2613779;54;20122;-70
2023/07/16 01:33:50;;;;;;;5.30;3.67;;;16.40;99.90;;;;;;2612175;54;21049;-70
2023/07/16 01:39:38;;;;;;;6.40;3.40;;;16.40;99.90;;;;;;2612327;54;20414;-69
2023/07/16 01:45:25;;;;;;;6.87;3.43;;;16.30;99.90;;;;;;2613331;54;20427;-69
2023/07/16 01:51:13;;;;;;;11.20;3.80;;;16.30;99.90;;;;;;2612866;54;20180;-69
2023/07/16 01:57:01;;;;;;;5.67;3.37;;;16.40;98.60;;;;;;2613010;54;20367;-69
2023/07/16 02:02:48;;;;;;;11.63;4.17;;;16.40;36.20;;;;;;2611588;54;20354;-69
2023/07/16 02:08:36;;;;;;;4.87;3.60;;;16.60;25.90;;;;;;2614681;39;20511;-69
2023/07/16 02:17:47;;;;;;;5.37;3.80;;;16.80;1.00;;;;;;2612298;54;20387;-69
2023/07/16 02:23:35;;;;;;;5.77;3.87;;;16.80;1.00;;;;;;2613826;54;20417;-70
2023/07/16 02:29:22;;;;;;;11.67;4.60;;;16.80;1.00;;;;;;2613714;54;20130;-69
2023/07/16 02:35:10;;;;;;;10.47;4.70;;;17.10;1.00;;;;;;2613708;54;20151;-69
2023/07/16 02:40:58;;;;;;;8.17;3.73;;;17.10;1.00;;;;;;2613601;54;20133;-68
2023/07/16 02:46:45;;;;;;;8.50;4.20;;;17.00;1.00;;;;;;2613808;54;20141;-69
2023/07/16 02:52:33;;;;;;;6.30;3.53;;;17.10;1.00;;;;;;2614715;54;20134;-78
2023/07/16 02:58:21;;;;;;;8.87;3.67;;;17.30;1.00;;;;;;2612877;54;20154;-78
2023/07/16 03:04:08;;;;;;;8.70;3.63;;;17.40;1.00;;;;;;2613894;54;20130;-70
2023/07/16 03:09:56;;;;;;;10.00;3.20;;;17.50;1.00;;;;;;2613767;54;20158;-70
2023/07/16 03:13:13;;;;;;;7.50;3.67;;;17.40;1.00;;;;;;2613285;54;20399;-69
2023/07/16 03:15:39;;;;;;;7.07;3.20;;;17.30;1.00;;;;;;2613613;54;20143;-70
2023/07/16 03:21:26;;;;;;;8.20;3.90;;;17.20;1.00;;;;;;2613580;54;20154;-69
2023/07/16 03:27:14;;;;;;;11.37;4.27;;;17.00;1.00;;;;;;2614381;31;20759;-69
2023/07/16 03:33:02;;;;;;;8.30;4.93;;;17.10;1.00;;;;;;2610782;54;20171;-70
2023/07/16 03:38:50;;;;;;;6.40;3.90;;;16.80;1.00;;;;;;2615103;54;20133;-70
2023/07/16 03:44:38;;;;;;;8.90;4.57;;;16.60;1.00;;;;;;2615043;54;20146;-70
2023/07/16 03:50:25;;;;;;;6.83;3.07;;;16.70;1.00;;;;;;2613282;54;20355;-69
2023/07/16 03:56:13;;;;;;;10.93;3.77;;;16.70;1.00;;;;;;2614968;54;20151;-68
2023/07/16 04:02:01;;;;;;;4.40;3.47;;;16.80;1.00;;;;;;2614714;54;20153;-69
2023/07/16 04:07:49;;;;;;;6.33;3.40;;;16.80;1.00;;;;;;2612424;54;20125;-69
2023/07/16 04:17:45;;;;;;;4.13;3.00;;;16.70;1.00;;;;;;2614028;46;20391;-69
2023/07/16 04:23:33;;;;;;;10.20;4.03;;;16.50;1.00;;;;;;2613669;54;20380;-69
2023/07/16 04:29:21;;;;;;;7.13;3.50;;;16.70;1.00;;;;;;2613908;54;20628;-70
2023/07/16 04:35:09;;;;;;;6.10;4.00;;;16.60;1.00;;;;;;2614964;39;20466;-69
2023/07/16 04:40:56;;;;;;;7.43;3.70;;;16.70;1.00;;;;;;2612893;54;20130;-69
2023/07/16 04:46:44;;;;;;;5.77;3.83;;;17.00;1.00;;;;;;2612476;54;20157;-68
2023/07/16 04:49:47;;;;;;;7.73;4.93;;;17.00;1.00;;;;;;2614066;54;20419;-69
2023/07/16 04:52:13;;;;;;;5.33;3.47;;;17.20;1.00;;;;;;2612872;54;20158;-69
2023/07/16 04:58:01;;;;;;;8.17;4.00;;;17.30;1.00;;;;;;2613993;54;20168;-69
2023/07/16 05:03:48;;;;;;;6.23;3.70;;;17.40;1.00;;;;;;2614689;31;20645;-69
2023/07/16 05:09:36;;;;;;;5.30;4.50;;;17.70;1.00;;;;;;2614303;54;20645;-68
2023/07/16 05:18:47;;;;;;;6.20;4.50;;;18.10;1.00;;;;;;2613594;39;20494;-69
2023/07/16 05:24:35;;;;;;;7.30;4.63;;;18.30;1.00;;;;;;2614322;54;20363;-68
2023/07/16 05:30:23;;;;;;;9.53;5.37;;;18.30;1.00;;;;;;2612622;54;20168;-69
2023/07/16 05:36:10;;;;;;;15.53;4.50;;;18.60;1.00;;;;;;2614526;54;20126;-69
2023/07/16 05:39:14;;;;;;;7.17;4.80;;;18.70;1.00;;;;;;2613007;54;20415;-69
2023/07/16 05:41:40;;;;;;;13.40;5.00;;;18.70;1.00;;;;;;2609755;54;20257;-69
2023/07/16 05:47:28;;;;;;;10.60;5.53;;;19.10;1.00;;;;;;2614773;39;20511;-69
2023/07/16 05:53:16;;;;;;;9.13;5.43;;;19.20;1.00;;;;;;2614512;54;20123;-69
2023/07/16 05:59:03;;;;;;;5.87;5.20;;;19.40;1.00;;;;;;2613750;54;20465;-69
2023/07/16 06:04:51;;;;;;;8.03;5.43;;;19.20;1.00;;;;;;2613178;54;20657;-70
2023/07/16 06:10:39;;;;;;;5.97;5.47;;;19.50;1.00;;;;;;2613967;54;20127;-69
2023/07/16 06:16:26;;;;;;;7.03;6.33;;;19.70;1.00;;;;;;2614040;54;20173;-69
2023/07/16 06:22:14;;;;;;;7.37;6.70;;;19.40;1.00;;;;;;2613470;54;20151;-68
2023/07/16 06:28:03;;;;;;;8.83;6.10;;;19.30;1.00;;;;;;2614309;54;20149;-72
2023/07/16 06:33:51;;;;;;;8.97;6.47;;;19.80;1.00;;;;;;2614505;39;20765;-71
2023/07/16 06:39:38;;;;;;;7.57;7.07;;;20.00;1.00;;;;;;2608743;54;20171;-70
2023/07/16 06:45:26;;;;;;;12.80;7.37;;;20.00;1.00;;;;;;2611056;54;20466;-70
2023/07/16 06:51:14;;;;;;;8.17;7.50;;;20.30;1.00;;;;;;2613601;39;20536;-70
2023/07/16 06:57:01;;;;;;;9.40;8.50;;;20.50;1.00;;;;;;2614350;54;20158;-70
2023/07/16 07:02:49;;;;;;;7.90;7.20;;;20.70;1.00;;;;;;2613198;54;20745;-70
2023/07/16 07:08:37;;;;;;;8.73;8.03;;;20.80;1.00;;;;;;2613279;54;20147;-70
2023/07/16 07:18:43;;;;;;;8.83;7.13;;;20.60;1.00;;;;;;2614669;54;20959;-70
2023/07/16 07:24:30;;;;;;;10.67;7.90;;;21.20;1.00;;;;;;2614847;54;20363;-70
2023/07/16 07:30:18;;;;;;;10.87;9.97;;;20.90;1.00;;;;;;2612881;54;20267;-70
2023/07/16 07:36:06;;;;;;;9.53;8.63;;;21.20;1.00;;;;;;2614197;54;20130;-70
2023/07/16 07:41:54;;;;;;;10.97;10.00;;;20.90;1.00;;;;;;2613368;54;20122;-70
2023/07/16 07:47:41;;;;;;;8.90;8.40;;;21.10;1.00;;;;;;2614448;54;20645;-69
2023/07/16 07:53:29;;;;;;;9.67;8.97;;;20.90;1.00;;;;;;2614810;54;20224;-69
2023/07/16 07:59:17;;;;;;;11.70;10.13;;;21.90;1.00;;;;;;2614739;54;20123;-71
2023/07/16 08:05:05;;;;;;;11.00;10.10;;;22.10;1.00;;;;;;2614924;54;20652;-71
2023/07/16 08:10:54;;;;;;;10.80;9.97;;;22.30;1.00;;;;;;2615012;54;20925;-70
2023/07/16 08:14:14;;;;;;;11.33;10.30;;;22.20;1.00;;;;;;2614708;39;20845;-70
2023/07/16 08:16:40;;;;;;;11.10;10.00;;;21.10;1.00;;;;;;2614094;54;20504;-70
2023/07/16 08:22:27;;;;;;;10.40;9.30;;;22.10;1.00;;;;;;2614521;54;20147;-69
2023/07/16 08:28:15;;;;;;;11.83;10.93;;;21.90;1.00;;;;;;2614883;54;20176;-69
2023/07/16 08:34:02;;;;;;;11.00;10.00;;;22.90;1.00;;;;;;2614567;54;20122;-69
2023/07/16 08:39:53;;;;;;;11.70;10.70;;;21.80;1.00;;;;;;2613395;54;20268;-68
2023/07/16 08:45:44;;;;;;;11.30;10.50;;;22.10;1.00;;;;;;2614577;54;20407;-69
2023/07/16 08:51:33;;;;;;;12.10;11.40;;;23.20;1.00;;;;;;2614516;54;20441;-68
2023/07/16 08:57:22;;;;;;;11.90;10.90;;;23.50;1.00;;;;;;2610780;54;20404;-70
2023/07/16 09:03:13;;;;;;;12.10;11.40;;;22.50;1.00;;;;;;2611113;54;20367;-69
2023/07/16 09:09:01;;;;;;;13.53;12.63;;;22.40;1.00;;;;;;2612614;54;20429;-69
2023/07/16 09:18:42;;;;;;;12.30;11.60;;;21.90;1.00;;;;;;2614611;54;20371;-69
2023/07/16 09:24:29;;;;;;;14.07;13.17;;;21.70;1.00;;;;;;2614473;54;20458;-70
2023/07/16 09:30:17;;;;;;;15.60;14.10;;;23.20;1.00;;;;;;2614404;39;20537;-70
2023/07/16 09:36:05;;;;;;;11.70;11.03;;;22.90;1.00;;;;;;2614856;54;20135;-70
2023/07/16 09:41:53;;;;;;;12.13;11.40;;;22.50;1.00;;;;;;2614217;54;20168;-70
2023/07/16 09:47:41;;;;;;;13.00;12.00;;;22.50;1.00;;;;;;2613623;54;20975;-70
2023/07/16 09:53:31;;;;;;;12.53;11.27;;;24.10;1.00;;;;;;2613776;54;20133;-70
2023/07/16 09:59:23;;;;;;;13.73;12.57;;;24.00;1.00;;;;;;2613728;54;20501;-71
2023/07/16 10:05:19;;;;;;;13.50;12.70;;;24.70;1.00;;;;;;2614800;31;20874;-69
2023/07/16 10:21:06;;;;;;;12.97;11.67;;;23.00;1.00;;;;;;2613040;54;20453;-70
2023/07/16 10:26:54;;;;;;;11.80;11.00;;;22.70;1.00;;;;;;2612173;54;20435;-70
2023/07/16 10:32:42;;;;;;;17.80;14.07;;;23.20;1.00;;;;;;2613936;54;20167;-69
2023/07/16 10:38:32;;;;;;;13.87;12.83;;;22.80;1.00;;;;;;2614608;54;20413;-70
2023/07/16 10:44:21;;;;;;;12.90;12.20;;;23.40;1.00;;;;;;2614320;54;20363;-69
2023/07/16 10:50:09;;;;;;;13.60;12.70;;;23.10;1.00;;;;;;2614544;54;20877;-71
2023/07/16 10:56:01;;;;;;;14.50;13.60;;;25.00;1.00;;;;;;2612781;54;20511;-70
2023/07/16 11:01:48;;;;;;;12.90;12.13;;;24.00;1.00;;;;;;2613263;54;20390;-71
2023/07/16 11:07:36;;;;;;;13.30;12.53;;;24.10;1.00;;;;;;2613177;54;20150;-70
2023/07/16 11:13:32;;;;;;;12.63;11.60;;;24.30;1.00;;;;;;2613993;54;20122;-70
2023/07/16 11:19:20;;;;;;;14.83;13.83;;;23.60;1.00;;;;;;2613382;54;20410;-70
2023/07/16 11:22:27;;;;;;;12.83;12.13;;;23.10;1.00;;;;;;2613134;54;20523;-71
2023/07/16 11:28:15;;;;;;;13.60;12.60;;;23.70;1.00;;;;;;2612436;39;21497;-70
2023/07/16 11:34:03;;;;;;;14.53;13.73;;;23.60;1.00;;;;;;2613682;54;20403;-70
2023/07/16 11:37:06;;;;;;;14.10;13.00;;;24.30;1.00;;;;;;2613817;54;20416;-70
2023/07/16 11:39:32;;;;;;;14.77;13.73;;;23.70;1.00;;;;;;2613035;39;20539;-71
2023/07/16 11:51:31;;;;;;;12.93;11.83;;;23.20;1.00;;;;;;2610378;54;20385;-70
2023/07/16 11:57:19;;;;;;;13.27;12.33;;;23.30;1.00;;;;;;2613401;54;20155;-70
2023/07/16 12:03:06;;;;;;;13.43;12.60;;;23.10;1.00;;;;;;2612025;54;20134;-71
2023/07/16 12:08:55;;;;;;;12.80;12.10;;;23.30;1.00;;;;;;2613670;54;20636;-70
2023/07/16 12:14:42;;;;;;;14.10;12.73;;;22.90;1.00;;;;;;2613769;54;20389;-70
2023/07/16 12:17:59;;;;;;;12.70;12.00;;;22.90;1.00;;;;;;2614251;54;20435;-71
2023/07/16 12:20:24;;;;;;;13.37;12.60;;;23.00;1.00;;;;;;2614119;54;20158;-70
2023/07/16 12:26:13;;;;;;;14.70;13.37;;;23.50;1.00;;;;;;2610986;54;20121;-69
2023/07/16 12:32:01;;;;;;;12.70;11.90;;;22.70;1.00;;;;;;2614247;39;20755;-71
2023/07/16 12:37:50;;;;;;;13.03;12.33;;;23.40;1.00;;;;;;2614768;54;20115;-71
2023/07/16 12:43:37;;;;;;;13.53;12.53;;;23.40;1.00;;;;;;2615157;39;20865;-70
2023/07/16 12:49:25;;;;;;;14.07;13.17;;;22.80;1.00;;;;;;2612924;54;20144;-70
2023/07/16 12:55:13;;;;;;;14.20;13.20;;;23.10;1.00;;;;;;2614346;54;20122;-70
2023/07/16 13:01:02;;;;;;;13.87;13.03;;;22.90;1.00;;;;;;2613526;54;20371;-70
2023/07/16 13:06:49;;;;;;;12.70;11.57;;;23.10;1.00;;;;;;2614151;54;20387;-70
2023/07/16 13:12:37;;;;;;;13.70;12.90;;;23.30;1.00;;;;;;2613692;54;20127;-69
2023/07/16 13:22:27;;;;;;;14.90;14.00;;;24.40;1.00;;;;;;2612335;54;20391;-72
2023/07/16 13:28:15;;;;;;;13.83;13.03;;;25.20;1.00;;;;;;2613801;54;20367;-72
2023/07/16 13:34:03;;;;;;;15.00;14.07;;;24.30;1.00;;;;;;2614567;54;20168;-71
2023/07/16 13:39:50;;;;;;;15.43;14.17;;;25.40;1.00;;;;;;2614270;54;20154;-71
2023/07/16 13:45:39;;;;;;;13.63;12.93;;;24.60;1.00;;;;;;2614497;54;20247;-69
2023/07/16 13:51:26;;;;;;;15.30;14.40;;;24.70;1.00;;;;;;2614327;54;20422;-72
2023/07/16 13:57:14;;;;;;;14.77;14.00;;;25.80;1.00;;;;;;2614662;54;20252;-72
2023/07/16 14:03:03;;;;;;;13.27;12.47;;;25.00;1.00;;;;;;2614642;54;20122;-71
2023/07/16 14:08:50;;;;;;;13.80;13.10;;;23.90;1.00;;;;;;2614503;46;20511;-71
2023/07/16 14:14:38;;;;;;;14.00;13.30;;;23.70;1.00;;;;;;2614841;39;20542;-70
2023/07/16 14:17:59;;;;;;;14.07;13.10;;;23.50;1.00;;;;;;2613733;54;20531;-71
2023/07/16 14:20:24;;;;;;;14.67;13.87;;;23.40;1.00;;;;;;2613198;54;20197;-71
2023/07/16 14:26:12;;;;;;;14.90;13.90;;;25.20;1.00;;;;;;2614027;54;20126;-70
2023/07/16 14:32:00;;;;;;;15.07;14.17;;;24.50;1.00;;;;;;2613434;54;20239;-70
2023/07/16 14:37:48;;;;;;;14.97;13.87;;;25.10;1.00;;;;;;2614084;54;20130;-70
2023/07/16 14:43:37;;;;;;;15.17;14.37;;;25.00;1.00;;;;;;2614913;39;20884;-70
2023/07/16 14:49:25;;;;;;;14.13;13.10;;;25.20;1.00;;;;;;2613469;54;20407;-71
2023/07/16 14:55:12;;;;;;;13.43;12.73;;;25.10;1.00;;;;;;2614152;54;20146;-71
2023/07/16 15:01:03;;;;;;;14.00;13.30;;;25.00;1.00;;;;;;2614251;54;20188;-72
2023/07/16 15:06:51;;;;;;;13.70;13.00;;;25.30;1.00;;;;;;2613850;54;20408;-71
2023/07/16 15:12:38;;;;;;;15.60;14.80;;;24.80;1.00;;;;;;2614087;54;20477;-72
2023/07/16 15:22:29;;;;;;;15.00;14.10;;;26.00;1.00;;;;;;2613804;54;21236;-73
2023/07/16 15:28:17;;;;;;;14.50;13.77;;;25.00;1.00;;;;;;2613411;54;20370;-70
2023/07/16 15:34:05;;;;;;;14.33;13.53;;;24.00;1.00;;;;;;2613360;54;20158;-71
2023/07/16 15:39:53;;;;;;;13.87;13.17;;;23.80;1.00;;;;;;2613507;54;20191;-71
2023/07/16 15:45:41;;;;;;;14.77;13.83;;;23.90;1.00;;;;;;2614770;54;20167;-71
2023/07/16 15:51:28;;;;;;;14.87;13.87;;;24.30;1.00;;;;;;2614070;54;20444;-71
2023/07/16 15:54:32;;;;;;;14.30;13.47;;;24.60;1.00;;;;;;2615310;39;21110;-72
2023/07/16 15:56:57;;;;;;;14.90;13.80;;;24.60;1.00;;;;;;2613581;54;20245;-71
2023/07/16 16:02:45;;;;;;;14.33;13.43;;;24.50;1.00;;;;;;2613468;54;20290;-71
2023/07/16 16:08:34;;;;;;;15.30;14.40;;;24.00;1.00;;;;;;2613859;54;20152;-71
2023/07/16 16:14:22;;;;;;;13.43;12.73;;;23.80;1.00;;;;;;2613573;54;20397;-72
2023/07/16 16:20:10;;;;;;;13.20;12.50;;;23.60;1.00;;;;;;2612626;54;20418;-71
2023/07/16 16:25:58;;;;;;;13.90;13.10;;;23.70;1.00;;;;;;2614028;54;20423;-71
2023/07/16 16:31:45;;;;;;;14.50;13.63;;;24.40;1.00;;;;;;2613335;54;20653;-71
2023/07/16 16:37:33;;;;;;;13.23;12.63;;;24.60;1.00;;;;;;2614074;54;20121;-70
2023/07/16 16:43:21;;;;;;;14.37;13.50;;;24.20;1.00;;;;;;2614457;54;20154;-71
2023/07/16 16:49:09;;;;;;;15.63;14.37;;;25.40;1.00;;;;;;2614182;54;20387;-72
2023/07/16 16:54:57;;;;;;;14.90;14.10;;;24.20;1.00;;;;;;2615259;39;20550;-71
2023/07/16 17:00:45;;;;;;;15.00;14.20;;;24.60;1.00;;;;;;2613053;54;20664;-71
2023/07/16 17:06:33;;;;;;;14.40;13.10;;;24.00;1.00;;;;;;2614490;54;21022;-71
2023/07/16 17:12:20;;;;;;;15.17;14.17;;;23.60;1.00;;;;;;2614387;54;20172;-72
2023/07/16 17:24:52;;;;;;;14.83;13.43;;;23.30;1.00;;;;;;2613697;54;20910;-71
2023/07/16 17:30:40;;;;;;;14.87;13.87;;;24.80;1.00;;;;;;2614625;54;20131;-72
2023/07/16 17:36:29;;;;;;;14.47;13.47;;;24.70;1.00;;;;;;2614515;54;20386;-72
2023/07/16 17:42:17;;;;;;;15.50;14.60;;;23.80;1.00;;;;;;2613644;54;20933;-71
2023/07/16 17:48:05;;;;;;;15.50;14.37;;;23.60;1.00;;;;;;2614023;54;20131;-72
2023/07/16 17:53:52;;;;;;;14.90;14.00;;;23.50;1.00;;;;;;2611822;54;20138;-72
2023/07/16 17:59:41;;;;;;;15.40;14.33;;;23.50;1.00;;;;;;2612237;39;20581;-72
2023/07/16 18:05:29;;;;;;;16.03;15.03;;;23.40;1.00;;;;;;2612043;39;20841;-72
2023/07/16 18:11:17;;;;;;;14.77;13.80;;;23.10;1.00;;;;;;2614539;39;20772;-72
2023/07/16 18:17:04;;;;;;;15.00;13.97;;;23.00;1.00;;;;;;2614028;54;20148;-73
2023/07/16 18:22:52;;;;;;;14.70;13.80;;;22.80;1.00;;;;;;2612668;54;20282;-72
2023/07/16 18:32:23;;;;;;;15.00;14.00;;;22.70;1.00;;;;;;2610590;54;20367;-74
2023/07/16 18:38:10;;;;;;;14.33;13.47;;;22.50;1.00;;;;;;2612064;54;20506;-72
2023/07/16 18:43:58;;;;;;;15.00;14.20;;;22.40;1.00;;;;;;2611988;54;20130;-72
2023/07/16 18:49:45;;;;;;;15.27;14.27;;;22.30;1.00;;;;;;2611251;54;20175;-72
2023/07/16 18:55:32;;;;;;;16.23;14.60;;;22.20;1.00;;;;;;2611877;54;20163;-72
2023/07/16 19:01:19;;;;;;;15.23;14.33;;;22.00;1.00;;;;;;2612558;54;20156;-72
2023/07/16 19:07:07;;;;;;;14.93;14.13;;;22.00;1.00;;;;;;2613777;54;20114;-72
2023/07/16 19:12:55;;;;;;;16.13;15.23;;;21.50;1.00;;;;;;2612721;54;20131;-72
2023/07/16 19:18:42;;;;;;;13.80;13.00;;;21.10;1.00;;;;;;2613749;39;20592;-73
2023/07/16 19:28:08;;;;;;;15.03;14.10;;;21.20;1.00;;;;;;2611908;39;20804;-72
2023/07/16 19:33:55;;;;;;;17.27;15.60;;;20.80;1.00;;;;;;2610720;54;20673;-72
2023/07/16 19:39:42;;;;;;;15.20;14.37;;;20.90;1.00;;;;;;2612027;54;20135;-72
2023/07/16 19:45:30;;;;;;;16.73;15.50;;;20.60;1.00;;;;;;2611228;54;20126;-73
2023/07/16 19:51:17;;;;;;;15.80;14.83;;;20.80;1.00;;;;;;2612497;54;20173;-73
2023/07/16 19:57:05;;;;;;;16.20;15.23;;;20.80;1.00;;;;;;2612347;54;20158;-73
2023/07/16 20:02:53;;;;;;;16.20;15.20;;;20.70;1.00;;;;;;2612569;54;20400;-72
2023/07/16 20:08:41;;;;;;;15.93;14.57;;;20.80;1.00;;;;;;2611809;54;20268;-72
2023/07/16 20:14:28;;;;;;;18.37;16.97;;;20.50;1.00;;;;;;2611669;54;20146;-72
2023/07/16 20:20:17;;;;;;;15.83;14.83;;;20.10;1.00;;;;;;2613868;46;20169;-73
2023/07/16 20:29:30;;;;;;;14.87;14.00;;;19.70;1.00;;;;;;2613176;54;20403;-73
2023/07/16 20:35:17;;;;;;;16.63;15.33;;;19.80;1.00;;;;;;2614437;39;20848;-72
2023/07/16 20:41:05;;;;;;;15.50;14.30;;;19.70;1.00;;;;;;2614562;54;20163;-73
2023/07/16 20:46:53;;;;;;;15.10;14.10;;;19.60;1.00;;;;;;2612731;54;20140;-73
2023/07/16 20:52:43;;;;;;;15.10;14.07;;;19.40;1.00;;;;;;2614133;54;20110;-73
2023/07/16 20:58:31;;;;;;;13.97;13.13;;;19.40;1.00;;;;;;2613712;54;20391;-72
2023/07/16 21:04:19;;;;;;;13.83;12.80;;;19.30;1.00;;;;;;2613432;54;20122;-73
2023/07/16 21:10:07;;;;;;;14.60;13.60;;;19.10;1.00;;;;;;2614241;54;20163;-73
2023/07/16 21:15:54;;;;;;;13.97;12.87;;;19.00;1.00;;;;;;2612115;54;20397;-70
2023/07/16 21:21:43;;;;;;;14.77;13.77;;;19.00;1.00;;;;;;2613603;54;20560;-71
2023/07/16 21:25:00;;;;;;;14.80;13.80;;;18.90;1.00;;;;;;2613760;54;20437;-71
2023/07/16 21:27:29;;;;;;;14.07;13.20;;;19.00;1.00;;;;;;2612832;54;20885;-70
2023/07/16 21:33:17;;;;;;;15.00;13.60;;;18.70;1.00;;;;;;2614161;54;20387;-71
2023/07/16 21:39:05;;;;;;;17.77;15.67;;;18.60;1.00;;;;;;2614420;39;20870;-71
2023/07/16 21:44:53;;;;;;;13.80;12.90;;;18.40;1.00;;;;;;2612612;54;20123;-71
2023/07/16 21:50:41;;;;;;;14.63;13.30;;;18.70;1.00;;;;;;2614324;54;20649;-71
2023/07/16 21:53:44;;;;;;;14.47;13.33;;;18.60;1.00;;;;;;2614183;54;20388;-71
2023/07/16 21:56:10;;;;;;;13.87;12.90;;;18.60;1.00;;;;;;2614051;54;20443;-71
2023/07/16 22:01:58;;;;;;;13.80;12.70;;;18.40;1.00;;;;;;2612055;54;20235;-71
2023/07/16 22:07:48;;;;;;;13.57;12.27;;;18.30;1.00;;;;;;2611256;54;20131;-71
2023/07/16 22:13:35;;;;;;;12.63;11.50;;;18.30;1.00;;;;;;2614172;54;20395;-70
2023/07/16 22:19:22;;;;;;;13.53;12.57;;;18.50;1.00;;;;;;2614555;54;20440;-71
2023/07/16 22:29:29;;;;;;;13.33;12.10;;;18.60;1.00;;;;;;2613717;54;20360;-71
2023/07/16 22:35:17;;;;;;;13.00;12.20;;;18.40;1.00;;;;;;2613084;54;20419;-71
2023/07/16 22:41:05;;;;;;;13.87;12.80;;;18.20;1.00;;;;;;2613514;54;20652;-71
2023/07/16 22:46:52;;;;;;;15.07;13.30;;;18.00;1.00;;;;;;2614377;39;20851;-71
2023/07/16 22:52:40;;;;;;;13.63;12.47;;;18.00;1.00;;;;;;2614217;54;20142;-72
2023/07/16 22:58:28;;;;;;;13.37;12.37;;;17.80;1.00;;;;;;2613138;54;20130;-71
2023/07/16 23:04:16;;;;;;;12.90;11.73;;;17.60;1.00;;;;;;2613627;54;20122;-71
2023/07/16 23:10:04;;;;;;;13.03;12.13;;;17.40;1.00;;;;;;2613958;54;20142;-72
2023/07/16 23:15:51;;;;;;;13.03;11.60;;;17.30;1.00;;;;;;2612157;54;20367;-72
2023/07/16 23:21:39;;;;;;;12.23;11.40;;;17.40;1.00;;;;;;2613999;54;20676;-72
2023/07/16 23:25:00;;;;;;;12.53;11.50;;;17.40;1.00;;;;;;2613248;47;20427;-71
2023/07/16 23:27:26;;;;;;;13.67;12.63;;;17.40;1.00;;;;;;2613337;54;20689;-71
2023/07/16 23:33:14;;;;;;;14.23;11.20;;;17.30;1.00;;;;;;2612523;54;20130;-72
2023/07/16 23:39:04;;;;;;;12.70;11.57;;;17.30;1.00;;;;;;2613512;54;20125;-72
2023/07/16 23:44:52;;;;;;;12.17;10.97;;;17.20;1.00;;;;;;2613744;54;20439;-72
2023/07/16 23:50:40;;;;;;;10.57;9.80;;;17.00;1.00;;;;;;2612919;54;20256;-72
2023/07/16 23:56:28;;;;;;;11.10;10.20;;;16.70;1.00;;;;;;2614988;54;20144;-71
